createdAt,value
2018-08-11T11:07:00.316Z,25.22
2018-08-11T11:09:28.047Z,25.23
2018-08-11T11:11:56.376Z,25.31
2018-08-11T11:14:25.310Z,25.47
2018-08-11T11:16:56.112Z,25.55
2018-08-11T11:19:24.224Z,25.52
2018-08-11T11:21:52.563Z,25.56
2018-08-11T11:24:20.297Z,25.60
2018-08-11T11:26:49.197Z,25.75
2018-08-11T11:29:16.945Z,25.85
2018-08-11T11:31:45.352Z,26.02
2018-08-11T11:34:14.269Z,26.23
2018-08-11T11:36:42.097Z,26.42
2018-08-11T11:39:10.871Z,26.57
2018-08-11T11:41:38.917Z,26.63
2018-08-11T11:44:07.224Z,26.78
2018-08-11T11:46:35.536Z,26.89
2018-08-11T11:49:03.862Z,27.00
2018-08-11T11:51:32.827Z,27.18
2018-08-11T11:54:01.145Z,27.42
2018-08-11T11:56:28.892Z,27.60
2018-08-11T11:58:57.836Z,27.64
2018-08-11T12:01:26.152Z,27.61
2018-08-11T12:03:54.591Z,27.58
2018-08-11T12:06:23.044Z,27.73
2018-08-11T12:08:52.365Z,28.04
2018-08-11T12:11:19.767Z,28.37
2018-08-11T12:13:48.091Z,28.46
2018-08-11T12:16:16.419Z,28.37
2018-08-11T12:18:44.157Z,28.29
2018-08-11T12:21:12.471Z,28.20
2018-08-11T12:23:41.381Z,28.17
2018-08-11T12:26:09.715Z,28.29
2018-08-11T12:28:38.058Z,28.28
2018-08-11T12:31:06.392Z,28.46
2018-08-11T12:33:34.168Z,28.44
2018-08-11T12:36:03.052Z,28.31
2018-08-11T12:38:30.862Z,28.15
2018-08-11T12:40:59.746Z,28.13
2018-08-11T12:43:28.081Z,28.24
2018-08-11T12:45:56.427Z,28.02
2018-08-11T12:48:25.107Z,27.88
2018-08-11T12:50:52.894Z,27.73
2018-08-11T12:53:21.857Z,27.53
2018-08-11T12:55:50.191Z,27.26
2018-08-11T12:58:18.515Z,26.99
2018-08-11T13:00:46.822Z,26.89
2018-08-11T13:03:15.144Z,26.69
2018-08-11T13:05:43.462Z,26.50
2018-08-11T13:08:11.217Z,26.41
2018-08-11T13:10:40.145Z,26.29
2018-08-11T13:13:08.432Z,26.15
2018-08-11T13:15:36.753Z,26.03
2018-08-11T13:18:04.494Z,25.94
2018-08-11T13:20:33.472Z,25.81
2018-08-11T13:23:01.769Z,25.75
2018-08-11T13:25:30.095Z,25.40
2018-08-11T13:27:58.079Z,23.61
2018-08-11T13:30:26.292Z,21.74
2018-08-11T13:32:54.661Z,20.20
2018-08-11T13:35:23.549Z,18.72
2018-08-11T13:37:51.285Z,18.05
2018-08-11T13:40:20.251Z,17.75
2018-08-11T13:42:47.991Z,17.45
2018-08-11T13:45:16.893Z,17.15
2018-08-11T13:47:44.634Z,16.94
2018-08-11T13:50:13.528Z,16.77
2018-08-11T13:52:41.859Z,16.59
2018-08-11T13:55:09.620Z,16.57
2018-08-11T13:57:38.559Z,16.54
2018-08-11T14:00:06.931Z,16.44
2018-08-11T14:02:35.244Z,16.40
2018-08-11T14:05:03.609Z,16.41
2018-08-11T14:07:31.954Z,16.38
2018-08-11T14:10:00.240Z,16.31
2018-08-11T14:12:28.563Z,16.29
2018-08-11T14:14:56.958Z,16.27
2018-08-11T14:17:25.246Z,16.34
2018-08-11T14:19:53.592Z,16.34
2018-08-11T14:22:21.908Z,16.35
2018-08-11T14:24:50.219Z,16.41
2018-08-11T14:27:18.550Z,16.52
2018-08-11T14:29:46.868Z,16.65
2018-08-11T14:32:15.185Z,16.82
2018-08-11T14:34:44.499Z,16.98
2018-08-11T14:37:12.728Z,17.13
2018-08-11T14:39:41.064Z,17.30
2018-08-11T14:42:09.428Z,17.46
2018-08-11T14:44:37.810Z,17.57
2018-08-11T14:47:06.070Z,17.62
2018-08-11T14:49:34.386Z,17.71
2018-08-11T14:52:02.768Z,17.88
2018-08-11T14:54:30.510Z,18.10
2018-08-11T14:56:59.409Z,18.46
2018-08-11T14:59:27.751Z,18.56
2018-08-11T15:01:56.061Z,19.22
2018-08-11T15:04:24.385Z,19.61
2018-08-11T15:06:52.699Z,20.11
2018-08-11T15:09:21.017Z,20.84
2018-08-11T15:11:49.331Z,21.40
2018-08-11T15:14:17.662Z,21.48
2018-08-11T15:16:46.013Z,21.29
2018-08-11T15:19:13.755Z,21.56
2018-08-11T15:21:42.657Z,22.18
2018-08-11T15:24:10.978Z,22.15
2018-08-11T15:26:39.294Z,22.30
2018-08-11T15:29:07.610Z,22.90
2018-08-11T15:31:35.413Z,23.20
2018-08-11T15:34:04.318Z,23.67
2018-08-11T15:36:32.656Z,24.08
2018-08-11T15:39:00.630Z,24.35
2018-08-11T15:41:29.333Z,24.67
2018-08-11T15:43:57.074Z,24.92
2018-08-11T15:46:25.384Z,24.95
2018-08-11T15:48:54.343Z,24.98
2018-08-11T15:51:22.600Z,24.51
2018-08-11T15:53:50.904Z,23.99
2018-08-11T15:56:18.719Z,23.53
2018-08-11T15:58:47.572Z,23.19
2018-08-11T16:01:15.386Z,22.88
2018-08-11T16:03:44.290Z,22.58
2018-08-11T16:06:13.499Z,22.31
2018-08-11T16:08:41.232Z,22.09
2018-08-11T16:11:10.144Z,21.96
2018-08-11T16:13:37.883Z,21.87
2018-08-11T16:16:06.198Z,21.72
2018-08-11T16:18:34.659Z,21.64
2018-08-11T16:21:03.406Z,21.51
2018-08-11T16:23:31.729Z,21.49
2018-08-11T16:26:00.048Z,21.28
2018-08-11T16:28:28.362Z,21.17
2018-08-11T16:30:56.110Z,21.15
2018-08-11T16:33:25.041Z,21.27
2018-08-11T16:35:53.353Z,21.34
2018-08-11T16:38:21.747Z,21.32
2018-08-11T16:40:49.565Z,21.23
2018-08-11T16:43:18.398Z,21.20
2018-08-11T16:45:46.732Z,21.19
2018-08-11T16:48:15.035Z,21.19
2018-08-11T16:50:43.377Z,21.21
2018-08-11T16:53:11.244Z,21.14
2018-08-11T16:55:39.520Z,21.10
2018-08-11T16:58:07.816Z,21.13
2018-08-11T17:00:36.716Z,21.17
2018-08-11T17:03:04.450Z,21.08
2018-08-11T17:05:32.771Z,21.04
2018-08-11T17:08:01.666Z,20.91
2018-08-11T17:10:29.469Z,20.79
2018-08-11T17:12:58.399Z,20.67
2018-08-11T17:15:26.732Z,20.59
2018-08-11T17:17:55.089Z,20.48
2018-08-11T17:20:23.413Z,20.41
2018-08-11T17:22:51.744Z,20.55
2018-08-11T17:25:20.101Z,20.64
2018-08-11T17:27:48.420Z,20.62
2018-08-11T17:30:16.160Z,20.56
2018-08-11T17:32:44.502Z,20.36
2018-08-11T17:35:13.431Z,20.27
2018-08-11T17:37:41.808Z,20.20
2018-08-11T17:40:10.125Z,20.02
2018-08-11T17:42:38.451Z,19.87
2018-08-11T17:45:06.785Z,19.62
2018-08-11T17:47:35.299Z,19.13
2018-08-11T17:50:03.632Z,18.98
2018-08-11T17:52:31.963Z,18.96
2018-08-11T17:54:59.776Z,18.94
2018-08-11T17:57:28.309Z,19.02
2018-08-11T17:59:57.217Z,19.14
2018-08-11T18:02:25.567Z,19.24
2018-08-11T18:04:53.944Z,19.30
2018-08-11T18:07:21.742Z,19.29
2018-08-11T18:09:50.116Z,19.24
2018-08-11T18:12:19.016Z,19.20
2018-08-11T18:14:46.890Z,19.13
2018-08-11T18:17:15.823Z,19.02
2018-08-11T18:19:43.625Z,18.90
2018-08-11T18:22:12.520Z,18.83
2018-08-11T18:24:40.913Z,18.79
2018-08-11T18:27:09.289Z,18.84
2018-08-11T18:29:37.655Z,18.90
2018-08-11T18:32:05.941Z,18.91
2018-08-11T18:34:34.286Z,18.86
2018-08-11T18:37:02.625Z,18.90
2018-08-11T18:39:31.183Z,18.94
2018-08-11T18:41:58.757Z,18.92
2018-08-11T18:44:27.039Z,18.91
2018-08-11T18:46:55.493Z,18.85
2018-08-11T18:49:24.411Z,18.73
2018-08-11T18:51:52.154Z,18.63
2018-08-11T18:54:21.059Z,18.53
2018-08-11T18:56:49.376Z,18.43
2018-08-11T18:59:17.764Z,18.29
2018-08-11T19:01:46.033Z,18.17
2018-08-11T19:04:14.988Z,18.16
2018-08-11T19:06:42.851Z,18.04
2018-08-11T19:09:11.140Z,17.84
2018-08-11T19:11:40.077Z,17.69
2018-08-11T19:14:08.440Z,17.58
2018-08-11T19:16:36.193Z,17.54
2018-08-11T19:19:04.727Z,17.51
2018-08-11T19:21:33.533Z,17.49
2018-08-11T19:24:01.865Z,17.45
2018-08-11T19:26:30.202Z,17.44
2018-08-11T19:28:57.944Z,17.40
2018-08-11T19:31:26.845Z,17.33
2018-08-11T19:33:55.165Z,17.21
2018-08-11T19:36:23.601Z,17.28
2018-08-11T19:38:51.330Z,17.33
2018-08-11T19:41:20.453Z,17.44
2018-08-11T19:43:48.787Z,17.54
2018-08-11T19:46:17.186Z,17.57
2018-08-11T19:48:44.905Z,17.57
2018-08-11T19:51:13.803Z,17.52
2018-08-11T19:53:42.135Z,17.42
2018-08-11T19:56:10.452Z,17.38
2018-08-11T19:58:38.210Z,17.33
2018-08-11T20:09:02.805Z,16.85
2018-08-11T20:11:30.546Z,16.85
2018-08-11T20:13:59.446Z,16.85
2018-08-11T20:16:27.174Z,16.86
2018-08-11T20:18:56.212Z,16.85
2018-08-11T20:21:24.512Z,16.83
2018-08-11T20:23:52.254Z,16.86
2018-08-11T20:26:21.171Z,16.94
2018-08-11T20:28:48.929Z,17.03
2018-08-11T20:31:17.870Z,17.09
2018-08-11T20:33:46.241Z,17.20
2018-08-11T20:36:14.650Z,17.27
2018-08-11T20:38:43.139Z,17.28
2018-08-11T20:41:10.888Z,17.33
2018-08-11T20:43:39.798Z,17.35
2018-08-11T20:46:08.107Z,17.37
2018-08-11T20:48:36.456Z,17.37
2018-08-11T20:51:04.792Z,17.31
2018-08-11T20:53:33.061Z,17.32
2018-08-11T20:56:01.387Z,17.30
2018-08-11T20:58:29.733Z,17.26
2018-08-11T21:00:58.634Z,17.22
2018-08-11T21:03:26.950Z,17.23
2018-08-11T21:05:55.462Z,17.24
2018-08-11T21:08:24.385Z,17.26
2018-08-11T21:10:52.717Z,17.29
2018-08-11T21:13:20.558Z,17.20
2018-08-11T21:15:49.462Z,17.10
2018-08-11T21:18:17.795Z,17.05
2018-08-11T21:20:46.161Z,17.00
2018-08-11T21:23:14.564Z,16.91
2018-08-11T21:25:42.887Z,16.82
2018-08-11T21:28:11.433Z,16.74
2018-08-11T21:30:39.571Z,16.75
2018-08-11T21:33:07.891Z,16.76
2018-08-11T21:35:35.740Z,16.71
2018-08-11T21:38:04.645Z,16.68
2018-08-11T21:40:32.973Z,16.68
2018-08-11T21:43:01.349Z,16.63
2018-08-11T21:45:29.751Z,16.63
2018-08-11T21:47:58.101Z,16.60
2018-08-11T21:50:26.433Z,16.63
2018-08-11T21:52:54.763Z,16.62
2018-08-11T21:55:23.142Z,16.63
2018-08-11T21:57:50.913Z,16.63
2018-08-11T22:00:19.820Z,16.62
2018-08-11T22:02:48.150Z,16.61
2018-08-11T22:05:16.263Z,16.61
2018-08-11T22:07:44.836Z,16.65
2018-08-11T22:10:12.572Z,16.63
2018-08-11T22:12:42.191Z,16.66
2018-08-11T22:15:09.799Z,16.67
2018-08-11T22:17:38.115Z,16.65
2018-08-11T22:20:06.793Z,16.62
2018-08-11T22:22:35.488Z,16.59
2018-08-11T22:25:03.851Z,16.61
2018-08-11T22:27:32.173Z,16.65
2018-08-11T22:29:59.906Z,16.69
2018-08-11T22:32:28.809Z,16.68
2018-08-11T22:34:57.124Z,16.68
2018-08-11T22:37:25.471Z,16.72
2018-08-11T22:39:53.201Z,16.71
2018-08-11T22:42:21.553Z,16.70
2018-08-11T22:44:49.878Z,16.72
2018-08-11T22:47:18.272Z,16.77
2018-08-11T22:49:46.518Z,16.73
2018-08-11T22:52:15.438Z,16.76
2018-08-11T22:54:43.174Z,16.80
2018-08-11T22:57:12.070Z,16.76
2018-08-11T22:59:40.754Z,16.74
2018-08-11T23:02:09.369Z,16.70
2018-08-11T23:04:39.437Z,16.70
2018-08-11T23:07:09.585Z,16.68
2018-08-11T23:09:37.308Z,16.67
2018-08-11T23:12:05.066Z,16.64
2018-08-11T23:14:33.960Z,16.61
2018-08-11T23:17:02.280Z,16.61
2018-08-11T23:19:30.602Z,16.60
2018-08-11T23:21:58.342Z,16.56
2018-08-11T23:24:27.001Z,16.49
2018-08-11T23:26:55.349Z,16.50
2018-08-11T23:29:24.259Z,16.51
2018-08-11T23:31:52.381Z,16.55
2018-08-11T23:34:20.903Z,16.55
2018-08-11T23:36:49.232Z,16.54
2018-08-11T23:39:19.176Z,16.50
2018-08-11T23:41:47.518Z,16.50
2018-08-11T23:44:16.066Z,16.49
2018-08-11T23:46:44.741Z,16.50
2018-08-11T23:49:12.486Z,16.52
2018-08-11T23:51:40.217Z,16.52
2018-08-11T23:54:08.536Z,16.55
2018-08-11T23:56:37.762Z,16.55
2018-08-11T23:59:07.335Z,16.53
